Time,TemperatureF,DewpointF,PressureIn,WindDirection,WindDirectionDegrees,WindSpeedMPH,WindSpeedGustMPH,Humidity,HourlyPrecipIn,Conditions,Clouds,dailyrainin,SoftwareType,DateUTC
2013-09-17 00:00:00,50.2,41.5,30.20,West,281,1.0,9.0,72,0.00,,---,0.00,VWS V14.01,2013-09-17 04:00:00,
2013-09-17 00:01:00,50.1,41.4,30.20,NNE,24,3.0,10.0,72,0.00,,---,0.00,VWS V14.01,2013-09-17 04:01:00,
2013-09-17 00:06:00,49.9,39.8,30.20,NNE,27,4.0,10.0,68,0.00,,---,0.00,VWS V14.01,2013-09-17 04:06:00,
2013-09-17 00:11:00,49.7,39.6,30.20,WNW,291,4.0,10.0,68,0.00,,---,0.00,VWS V14.01,2013-09-17 04:11:00,
2013-09-17 00:16:00,49.3,39.6,30.21,NW,305,2.0,10.0,69,0.00,,---,0.00,VWS V14.01,2013-09-17 04:16:00,
2013-09-17 00:21:00,49.1,39.0,30.21,WNW,303,2.0,10.0,68,0.00,,---,0.00,VWS V14.01,2013-09-17 04:21:00,
2013-09-17 00:26:00,48.9,38.4,30.21,NW,326,1.0,10.0,67,0.00,,---,0.00,VWS V14.01,2013-09-17 04:26:00,
2013-09-17 00:30:00,48.8,38.7,30.21,NNW,342,1.0,10.0,68,0.00,,---,0.00,VWS V14.01,2013-09-17 04:30:00,
2013-09-17 00:31:00,48.6,38.2,30.22,North,354,3.0,9.0,67,0.00,,---,0.00,VWS V14.01,2013-09-17 04:31:00,
2013-09-17 00:36:00,48.4,38.3,30.22,North,359,3.0,9.0,68,0.00,,---,0.00,VWS V14.01,2013-09-17 04:36:00,
2013-09-17 00:41:00,48.2,38.2,30.22,NE,35,5.0,9.0,68,0.00,,---,0.00,VWS V14.01,2013-09-17 04:41:00,
2013-09-17 00:46:00,47.9,37.9,30.22,NE,34,0.0,9.0,68,0.00,,---,0.00,VWS V14.01,2013-09-17 04:46:00,
2013-09-17 00:51:00,47.7,38.4,30.22,NW,320,4.0,9.0,70,0.00,,---,0.00,VWS V14.01,2013-09-17 04:51:00,
2013-09-17 00:56:00,47.5,38.2,30.22,WNW,293,2.0,9.0,70,0.00,,---,0.00,VWS V14.01,2013-09-17 04:56:00,
2013-09-17 01:00:00,50.2,41.5,30.20,West,281,1.0,9.0,72,0.00,,---,0.00,VWS V14.01,2013-09-17 05:00:00,
2013-09-17 01:01:00,47.3,37.7,30.22,WSW,248,1.0,10.0,69,0.00,,---,0.00,VWS V14.01,2013-09-17 05:01:00,
2013-09-17 01:06:00,47.2,37.6,30.22,WNW,298,2.0,10.0,69,0.00,,---,0.00,VWS V14.01,2013-09-17 05:06:00,
2013-09-17 01:11:00,47.1,37.8,30.22,NNE,27,1.0,10.0,70,0.00,,---,0.00,VWS V14.01,2013-09-17 05:11:00,
2013-09-17 01:16:00,46.9,37.6,30.23,NW,323,1.0,12.0,70,0.00,,---,0.00,VWS V14.01,2013-09-17 05:16:00,
2013-09-17 01:21:00,46.7,37.8,30.23,NW,308,1.0,12.0,71,0.00,,---,0.00,VWS V14.01,2013-09-17 05:21:00,
2013-09-17 01:26:00,46.6,37.7,30.23,WNW,296,3.0,12.0,71,0.00,,---,0.00,VWS V14.01,2013-09-17 05:26:00,
2013-09-17 01:30:00,46.5,37.6,30.23,NW,311,2.0,12.0,71,0.00,,---,0.00,VWS V14.01,2013-09-17 05:30:00,
2013-09-17 01:31:00,46.5,37.6,30.23,North,354,5.0,5.0,71,0.00,,---,0.00,VWS V14.01,2013-09-17 05:31:00,
2013-09-17 01:36:00,46.3,37.4,30.23,NNW,345,2.0,7.0,71,0.00,,---,0.00,VWS V14.01,2013-09-17 05:36:00,
2013-09-17 01:41:00,46.2,37.3,30.23,NNW,330,0.0,7.0,71,0.00,,---,0.00,VWS V14.01,2013-09-17 05:41:00,
2013-09-17 01:46:00,46.0,37.5,30.23,WNW,294,0.0,7.0,72,0.00,,---,0.00,VWS V14.01,2013-09-17 05:46:00,
2013-09-17 01:51:00,45.9,37.8,30.24,WNW,292,0.0,8.0,73,0.00,,---,0.00,VWS V14.01,2013-09-17 05:51:00,
2013-09-17 01:56:00,45.7,37.2,30.24,NW,308,0.0,8.0,72,0.00,,---,0.00,VWS V14.01,2013-09-17 05:56:00,
2013-09-17 02:00:00,45.7,37.2,30.24,NNW,338,0.0,8.0,72,0.00,,---,0.00,VWS V14.01,2013-09-17 06:00:00,
2013-09-17 02:01:00,45.6,37.5,30.24,WNW,301,1.0,4.0,73,0.00,,---,0.00,VWS V14.01,2013-09-17 06:01:00,
2013-09-17 02:06:00,45.4,37.3,30.24,NNE,14,1.0,5.0,73,0.00,,---,0.00,VWS V14.01,2013-09-17 06:06:00,
2013-09-17 02:11:00,45.3,37.9,30.24,NNW,340,0.0,5.0,75,0.00,,---,0.00,VWS V14.01,2013-09-17 06:11:00,
2013-09-17 02:16:00,45.2,37.8,30.24,NNW,340,1.0,5.0,75,0.00,,---,0.00,VWS V14.01,2013-09-17 06:16:00,
2013-09-17 02:21:00,45.0,37.9,30.24,NNE,30,1.0,5.0,76,0.00,,---,0.00,VWS V14.01,2013-09-17 06:21:00,
2013-09-17 02:26:00,44.8,38.0,30.25,NW,308,0.0,5.0,77,0.00,,---,0.00,VWS V14.01,2013-09-17 06:26:00,
2013-09-17 02:30:00,46.5,37.6,30.23,NW,311,2.0,12.0,71,0.00,,---,0.00,VWS V14.01,2013-09-17 06:30:00,
2013-09-17 02:31:00,44.7,37.6,30.25,WNW,302,2.0,3.0,76,0.00,,---,0.00,VWS V14.01,2013-09-17 06:31:00,
2013-09-17 02:36:00,44.5,37.8,30.25,NNE,14,2.0,3.0,77,0.00,,---,0.00,VWS V14.01,2013-09-17 06:36:00,
2013-09-17 02:41:00,44.4,37.7,30.25,NNW,348,1.0,5.0,77,0.00,,---,0.00,VWS V14.01,2013-09-17 06:41:00,
2013-09-17 02:46:00,44.3,37.6,30.25,WNW,295,1.0,5.0,77,0.00,,---,0.00,VWS V14.01,2013-09-17 06:46:00,
2013-09-17 02:51:00,44.3,37.6,30.25,NNW,335,1.0,5.0,77,0.00,,---,0.00,VWS V14.01,2013-09-17 06:51:00,
2013-09-17 02:56:00,44.3,37.6,30.26,NNW,333,4.0,6.0,77,0.00,,---,0.00,VWS V14.01,2013-09-17 06:56:00,
2013-09-17 03:00:00,44.2,37.1,30.26,NNW,333,1.0,7.0,76,0.00,,---,0.00,VWS V14.01,2013-09-17 07:00:00,
2013-09-17 03:01:00,44.2,37.5,30.26,North,5,4.0,5.0,77,0.00,,---,0.00,VWS V14.01,2013-09-17 07:01:00,
2013-09-17 03:06:00,44.1,37.4,30.26,NNW,330,0.0,5.0,77,0.00,,---,0.00,VWS V14.01,2013-09-17 07:06:00,
2013-09-17 03:11:00,43.9,37.2,30.26,NW,311,1.0,5.0,77,0.00,,---,0.00,VWS V14.01,2013-09-17 07:11:00,
2013-09-17 03:16:00,43.9,37.5,30.26,WNW,290,1.0,5.0,78,0.00,,---,0.00,VWS V14.01,2013-09-17 07:16:00,
2013-09-17 03:21:00,43.7,37.3,30.26,NW,304,2.0,5.0,78,0.00,,---,0.00,VWS V14.01,2013-09-17 07:21:00,
2013-09-17 03:26:00,43.6,37.2,30.26,North,11,0.0,6.0,78,0.00,,---,0.00,VWS V14.01,2013-09-17 07:26:00,
2013-09-17 03:30:00,43.5,37.4,30.26,North,353,0.0,6.0,79,0.00,,---,0.00,VWS V14.01,2013-09-17 07:30:00,
2013-09-17 03:31:00,43.5,37.1,30.26,NNW,336,2.0,3.0,78,0.00,,---,0.00,VWS V14.01,2013-09-17 07:31:00,
2013-09-17 03:36:00,43.3,37.2,30.26,NW,315,0.0,5.0,79,0.00,,---,0.00,VWS V14.01,2013-09-17 07:36:00,
2013-09-17 03:41:00,43.2,37.1,30.26,NNW,342,2.0,5.0,79,0.00,,---,0.00,VWS V14.01,2013-09-17 07:41:00,
2013-09-17 03:46:00,43.1,37.4,30.26,NW,316,0.0,5.0,80,0.00,,---,0.00,VWS V14.01,2013-09-17 07:46:00,
2013-09-17 03:51:00,43.0,37.3,30.26,NW,321,0.0,5.0,80,0.00,,---,0.00,VWS V14.01,2013-09-17 07:51:00,
2013-09-17 03:56:00,42.8,37.1,30.26,North,354,1.0,5.0,80,0.00,,---,0.00,VWS V14.01,2013-09-17 07:56:00,
2013-09-17 04:00:00,44.2,37.1,30.26,NNW,333,1.0,7.0,76,0.00,,---,0.00,VWS V14.01,2013-09-17 08:00:00,
2013-09-17 04:01:00,42.7,37.0,30.27,NW,307,1.0,2.0,80,0.00,,---,0.00,VWS V14.01,2013-09-17 08:01:00,
2013-09-17 04:06:00,42.6,37.5,30.27,North,349,0.0,4.0,82,0.00,,---,0.00,VWS V14.01,2013-09-17 08:06:00,
2013-09-17 04:10:00,42.5,37.4,30.27,NW,321,2.0,5.0,82,0.00,,---,0.00,VWS V14.01,2013-09-17 08:10:00,
2013-09-17 04:15:00,42.4,37.0,30.27,NW,321,3.0,5.0,81,0.00,,---,0.00,VWS V14.01,2013-09-17 08:15:00,
2013-09-17 04:20:00,42.3,37.2,30.27,NNW,335,1.0,5.0,82,0.00,,---,0.00,VWS V14.01,2013-09-17 08:20:00,
2013-09-17 04:25:00,42.2,37.1,30.27,NW,306,0.0,5.0,82,0.00,,---,0.00,VWS V14.01,2013-09-17 08:25:00,
2013-09-17 04:30:00,42.1,37.0,30.27,NW,315,1.0,4.0,82,0.00,,---,0.00,VWS V14.01,2013-09-17 08:30:00,
2013-09-17 04:35:00,42.0,36.9,30.28,North,349,1.0,5.0,82,0.00,,---,0.00,VWS V14.01,2013-09-17 08:35:00,
2013-09-17 04:40:00,42.0,36.9,30.27,NW,325,1.0,6.0,82,0.00,,---,0.00,VWS V14.01,2013-09-17 08:40:00,
2013-09-17 04:45:00,41.9,37.1,30.28,NNW,328,1.0,6.0,83,0.00,,---,0.00,VWS V14.01,2013-09-17 08:45:00,
2013-09-17 04:50:00,41.7,37.2,30.28,NW,319,0.0,6.0,84,0.00,,---,0.00,VWS V14.01,2013-09-17 08:50:00,
2013-09-17 04:55:00,41.6,36.8,30.28,NNW,342,1.0,6.0,83,0.00,,---,0.00,VWS V14.01,2013-09-17 08:55:00,
2013-09-17 05:00:00,41.6,37.1,30.28,NNW,329,0.0,4.0,84,0.00,,---,0.00,VWS V14.01,2013-09-17 09:00:00,
2013-09-17 05:05:00,41.5,37.0,30.28,NNW,340,1.0,4.0,84,0.00,,---,0.00,VWS V14.01,2013-09-17 09:05:00,
2013-09-17 05:10:00,41.4,36.9,30.28,North,357,0.0,4.0,84,0.00,,---,0.00,VWS V14.01,2013-09-17 09:10:00,
2013-09-17 05:15:00,41.4,36.9,30.29,WSW,253,1.0,5.0,84,0.00,,---,0.00,VWS V14.01,2013-09-17 09:15:00,
2013-09-17 05:20:00,41.3,37.1,30.29,NNW,340,3.0,5.0,85,0.00,,---,0.00,VWS V14.01,2013-09-17 09:20:00,
2013-09-17 05:25:00,41.2,36.7,30.29,NW,313,2.0,5.0,84,0.00,,---,0.00,VWS V14.01,2013-09-17 09:25:00,
2013-09-17 05:30:00,41.1,36.9,30.28,NNW,336,1.0,3.0,85,0.00,,---,0.00,VWS V14.01,2013-09-17 09:30:00,
2013-09-17 05:35:00,41.0,36.8,30.29,NW,323,0.0,4.0,85,0.00,,---,0.00,VWS V14.01,2013-09-17 09:35:00,
2013-09-17 05:40:00,40.9,36.8,30.29,NNW,332,0.0,4.0,85,0.00,,---,0.00,VWS V14.01,2013-09-17 09:40:00,
2013-09-17 05:45:00,40.9,36.8,30.29,North,11,0.0,4.0,85,0.00,,---,0.00,VWS V14.01,2013-09-17 09:45:00,
2013-09-17 05:50:00,40.8,36.9,30.30,North,359,0.0,4.0,86,0.00,,---,0.00,VWS V14.01,2013-09-17 09:50:00,
2013-09-17 05:55:00,40.7,36.8,30.30,NNW,346,1.0,4.0,86,0.00,,---,0.00,VWS V14.01,2013-09-17 09:55:00,
2013-09-17 06:00:00,40.6,36.8,30.30,NW,317,0.0,1.0,86,0.00,,---,0.00,VWS V14.01,2013-09-17 10:00:00,
2013-09-17 06:05:00,40.5,36.7,30.30,NW,319,0.0,3.0,86,0.00,,---,0.00,VWS V14.01,2013-09-17 10:05:00,
2013-09-17 06:10:00,40.5,36.7,30.30,NW,320,1.0,4.0,86,0.00,,---,0.00,VWS V14.01,2013-09-17 10:10:00,
2013-09-17 06:15:00,40.5,36.9,30.31,NNW,342,0.0,4.0,87,0.00,,---,0.00,VWS V14.01,2013-09-17 10:15:00,
2013-09-17 06:20:00,40.5,36.7,30.31,NW,308,0.0,4.0,86,0.00,,---,0.00,VWS V14.01,2013-09-17 10:20:00,
2013-09-17 06:25:00,40.4,36.8,30.31,NNW,347,0.0,4.0,87,0.00,,---,0.00,VWS V14.01,2013-09-17 10:25:00,
2013-09-17 06:30:00,40.3,36.5,30.32,WNW,293,0.0,1.0,86,0.00,,---,0.00,VWS V14.01,2013-09-17 10:30:00,
2013-09-17 06:35:00,40.3,36.5,30.32,NW,319,1.0,5.0,86,0.00,,---,0.00,VWS V14.01,2013-09-17 10:35:00,
2013-09-17 06:40:00,40.4,36.5,30.32,NNW,335,0.0,5.0,86,0.00,,---,0.00,VWS V14.01,2013-09-17 10:40:00,
2013-09-17 06:45:00,40.3,36.5,30.32,NW,323,1.0,5.0,86,0.00,,---,0.00,VWS V14.01,2013-09-17 10:45:00,
2013-09-17 06:50:00,40.4,36.8,30.33,NNW,339,0.0,5.0,87,0.00,,---,0.00,VWS V14.01,2013-09-17 10:50:00,
2013-09-17 06:55:00,40.4,36.5,30.33,NNW,338,0.0,5.0,86,0.00,,---,0.00,VWS V14.01,2013-09-17 10:55:00,
2013-09-17 07:00:00,40.5,36.9,30.33,North,3,0.0,1.0,87,0.00,,---,0.00,VWS V14.01,2013-09-17 11:00:00,
2013-09-17 07:05:00,40.4,36.8,30.33,NNW,340,0.0,2.0,87,0.00,,---,0.00,VWS V14.01,2013-09-17 11:05:00,
2013-09-17 07:10:00,40.5,36.9,30.33,North,1,0.0,2.0,87,0.00,,---,0.00,VWS V14.01,2013-09-17 11:10:00,
2013-09-17 07:15:00,40.6,37.0,30.33,NNW,340,0.0,2.0,87,0.00,,---,0.00,VWS V14.01,2013-09-17 11:15:00,
2013-09-17 07:20:00,40.8,36.9,30.33,West,259,2.0,3.0,86,0.00,,---,0.00,VWS V14.01,2013-09-17 11:20:00,
2013-09-17 07:25:00,41.2,37.0,30.33,East,86,1.0,3.0,85,0.00,,---,0.00,VWS V14.01,2013-09-17 11:25:00,
2013-09-17 07:30:00,41.5,37.3,30.34,North,11,0.0,1.0,85,0.00,,---,0.00,VWS V14.01,2013-09-17 11:30:00,
2013-09-17 07:35:00,41.7,36.9,30.34,WNW,294,1.0,3.0,83,0.00,,---,0.00,VWS V14.01,2013-09-17 11:35:00,
2013-09-17 07:40:00,42.1,37.0,30.34,NNW,335,0.0,5.0,82,0.00,,---,0.00,VWS V14.01,2013-09-17 11:40:00,
2013-09-17 07:45:00,42.4,37.3,30.34,North,4,0.0,5.0,82,0.00,,---,0.00,VWS V14.01,2013-09-17 11:45:00,
2013-09-17 07:50:00,43.2,37.8,30.34,NNW,333,1.0,5.0,81,0.00,,---,0.00,VWS V14.01,2013-09-17 11:50:00,
2013-09-17 07:55:00,43.9,38.1,30.34,NNE,17,0.0,5.0,80,0.00,,---,0.00,VWS V14.01,2013-09-17 11:55:00,
2013-09-17 08:00:00,44.5,38.1,30.34,NNE,30,1.0,2.0,78,0.00,,---,0.00,VWS V14.01,2013-09-17 12:00:00,
2013-09-17 08:05:00,45.1,38.0,30.35,North,357,0.0,5.0,76,0.00,,---,0.00,VWS V14.01,2013-09-17 12:05:00,
2013-09-17 08:10:00,45.7,38.2,30.35,NNW,344,1.0,5.0,75,0.00,,---,0.00,VWS V14.01,2013-09-17 12:10:00,
2013-09-17 08:15:00,46.2,38.4,30.35,NE,53,0.0,5.0,74,0.00,,---,0.00,VWS V14.01,2013-09-17 12:15:00,
2013-09-17 08:20:00,46.9,39.7,30.35,North,11,1.0,5.0,76,0.00,,---,0.00,VWS V14.01,2013-09-17 12:20:00,
2013-09-17 08:25:00,47.3,38.7,30.35,WNW,298,0.0,5.0,72,0.00,,---,0.00,VWS V14.01,2013-09-17 12:25:00,
2013-09-17 08:30:00,47.6,38.3,30.36,NNE,13,0.0,3.0,70,0.00,,---,0.00,VWS V14.01,2013-09-17 12:30:00,
2013-09-17 08:35:00,48.1,38.0,30.36,WSW,254,4.0,5.0,68,0.00,,---,0.00,VWS V14.01,2013-09-17 12:35:00,
2013-09-17 08:40:00,48.5,38.4,30.36,North,7,3.0,5.0,68,0.00,,---,0.00,VWS V14.01,2013-09-17 12:40:00,
2013-09-17 08:45:00,48.9,38.4,30.36,NE,38,0.0,6.0,67,0.00,,---,0.00,VWS V14.01,2013-09-17 12:45:00,
2013-09-17 08:50:00,49.3,38.0,30.37,NNE,32,0.0,6.0,65,0.00,,---,0.00,VWS V14.01,2013-09-17 12:50:00,
2013-09-17 08:55:00,49.5,39.0,30.37,North,354,0.0,6.0,67,0.00,,---,0.00,VWS V14.01,2013-09-17 12:55:00,
2013-09-17 09:00:00,50.0,39.1,30.37,North,4,0.0,3.0,66,0.00,,---,0.00,VWS V14.01,2013-09-17 13:00:00,
2013-09-17 09:05:00,50.3,39.4,30.37,NNE,18,1.0,5.0,66,0.00,,---,0.00,VWS V14.01,2013-09-17 13:05:00,
2013-09-17 09:10:00,50.8,39.5,30.37,NNW,345,0.0,5.0,65,0.00,,---,0.00,VWS V14.01,2013-09-17 13:10:00,
2013-09-17 09:15:00,50.9,38.4,30.37,NNW,347,2.0,6.0,62,0.00,,---,0.00,VWS V14.01,2013-09-17 13:15:00,
2013-09-17 09:20:00,50.9,39.2,30.37,WSW,249,0.0,6.0,64,0.00,,---,0.00,VWS V14.01,2013-09-17 13:20:00,
2013-09-17 09:25:00,51.1,39.0,30.38,NW,314,2.0,8.0,63,0.00,,---,0.00,VWS V14.01,2013-09-17 13:25:00,
2013-09-17 09:30:00,51.2,38.6,30.38,WNW,292,4.0,6.0,62,0.00,,---,0.00,VWS V14.01,2013-09-17 13:30:00,
2013-09-17 09:35:00,51.4,40.8,30.38,NNE,24,2.0,6.0,67,0.00,,---,0.00,VWS V14.01,2013-09-17 13:35:00,
2013-09-17 09:40:00,51.7,39.1,30.38,NE,47,0.0,6.0,62,0.00,,---,0.00,VWS V14.01,2013-09-17 13:40:00,
2013-09-17 09:45:00,51.9,39.3,30.38,NNW,342,1.0,6.0,62,0.00,,---,0.00,VWS V14.01,2013-09-17 13:45:00,
2013-09-17 09:50:00,52.5,39.0,30.38,NNW,327,4.0,6.0,60,0.00,,---,0.00,VWS V14.01,2013-09-17 13:50:00,
2013-09-17 09:55:00,52.6,39.1,30.38,SE,131,0.0,13.0,60,0.00,,---,0.00,VWS V14.01,2013-09-17 13:55:00,
2013-09-17 10:00:00,52.9,38.1,30.38,NE,42,2.0,11.0,57,0.00,,---,0.00,VWS V14.01,2013-09-17 14:00:00,
2013-09-17 10:05:00,53.3,37.6,30.38,NNE,25,2.0,11.0,55,0.00,,---,0.00,VWS V14.01,2013-09-17 14:05:00,
2013-09-17 10:10:00,53.5,38.2,30.39,NW,305,4.0,11.0,56,0.00,,---,0.00,VWS V14.01,2013-09-17 14:10:00,
2013-09-17 10:15:00,53.6,37.4,30.38,ENE,75,1.0,11.0,54,0.00,,---,0.00,VWS V14.01,2013-09-17 14:15:00,
2013-09-17 10:20:00,53.6,36.9,30.39,North,350,3.0,11.0,53,0.00,,---,0.00,VWS V14.01,2013-09-17 14:20:00,
2013-09-17 10:25:00,53.5,37.3,30.39,North,351,3.0,11.0,54,0.00,,---,0.00,VWS V14.01,2013-09-17 14:25:00,
2013-09-17 10:30:00,53.6,36.9,30.38,NNW,332,3.0,9.0,53,0.00,,---,0.00,VWS V14.01,2013-09-17 14:30:00,
2013-09-17 10:35:00,53.6,37.4,30.38,NNW,332,2.0,10.0,54,0.00,,---,0.00,VWS V14.01,2013-09-17 14:35:00,
2013-09-17 10:40:00,54.0,38.2,30.38,WNW,297,3.0,10.0,55,0.00,,---,0.00,VWS V14.01,2013-09-17 14:40:00,
2013-09-17 10:45:00,54.3,38.5,30.38,NW,306,2.0,10.0,55,0.00,,---,0.00,VWS V14.01,2013-09-17 14:45:00,
2013-09-17 10:50:00,54.7,38.9,30.38,NNW,346,4.0,10.0,55,0.00,,---,0.00,VWS V14.01,2013-09-17 14:50:00,
2013-09-17 10:55:00,55.0,38.7,30.38,NW,324,2.0,10.0,54,0.00,,---,0.00,VWS V14.01,2013-09-17 14:55:00,
2013-09-17 11:00:00,54.9,39.0,30.38,NW,323,3.0,3.0,55,0.00,,---,0.00,VWS V14.01,2013-09-17 15:00:00,
2013-09-17 11:05:00,55.3,39.4,30.38,NNE,29,2.0,7.0,55,0.00,,---,0.00,VWS V14.01,2013-09-17 15:05:00,
2013-09-17 11:10:00,55.5,38.7,30.38,NNW,334,3.0,7.0,53,0.00,,---,0.00,VWS V14.01,2013-09-17 15:10:00,
2013-09-17 11:15:00,55.9,40.5,30.38,SE,140,1.0,7.0,56,0.00,,---,0.00,VWS V14.01,2013-09-17 15:15:00,
2013-09-17 11:20:00,56.2,39.8,30.38,NNW,332,1.0,7.0,54,0.00,,---,0.00,VWS V14.01,2013-09-17 15:20:00,
2013-09-17 11:25:00,56.5,38.6,30.38,NE,50,2.0,10.0,51,0.00,,---,0.00,VWS V14.01,2013-09-17 15:25:00,
2013-09-17 11:30:00,56.8,38.4,30.38,WNW,293,1.0,5.0,50,0.00,,---,0.00,VWS V14.01,2013-09-17 15:30:00,
2013-09-17 11:35:00,57.0,39.6,30.38,NNW,338,2.0,7.0,52,0.00,,---,0.00,VWS V14.01,2013-09-17 15:35:00,
2013-09-17 11:40:00,57.0,38.0,30.38,NW,319,1.0,7.0,49,0.00,,---,0.00,VWS V14.01,2013-09-17 15:40:00,
2013-09-17 11:45:00,57.2,40.2,30.38,WNW,297,1.0,7.0,53,0.00,,---,0.00,VWS V14.01,2013-09-17 15:45:00,
2013-09-17 11:50:00,57.5,39.5,30.38,NE,37,1.0,7.0,51,0.00,,---,0.00,VWS V14.01,2013-09-17 15:50:00,
2013-09-17 11:55:00,57.6,39.6,30.38,North,9,0.0,7.0,51,0.00,,---,0.00,VWS V14.01,2013-09-17 15:55:00,
2013-09-17 12:00:00,58.0,40.5,30.38,North,6,2.0,3.0,52,0.00,,---,0.00,VWS V14.01,2013-09-17 16:00:00,
2013-09-17 12:05:00,58.0,39.0,30.38,NNW,333,1.0,4.0,49,0.00,,---,0.00,VWS V14.01,2013-09-17 16:05:00,
2013-09-17 12:10:00,58.5,40.5,30.37,NNE,18,0.0,4.0,51,0.00,,---,0.00,VWS V14.01,2013-09-17 16:10:00,
2013-09-17 12:15:00,58.8,39.7,30.37,NNW,342,0.0,9.0,49,0.00,,---,0.00,VWS V14.01,2013-09-17 16:15:00,
2013-09-17 12:20:00,59.0,41.4,30.37,North,353,0.0,9.0,52,0.00,,---,0.00,VWS V14.01,2013-09-17 16:20:00,
2013-09-17 12:25:00,59.3,41.2,30.37,NNW,340,1.0,9.0,51,0.00,,---,0.00,VWS V14.01,2013-09-17 16:25:00,
2013-09-17 12:30:00,59.1,38.4,30.37,SSE,166,1.0,4.0,46,0.00,,---,0.00,VWS V14.01,2013-09-17 16:30:00,
2013-09-17 12:34:00,58.8,39.2,30.37,WNW,297,1.0,5.0,48,0.00,,---,0.00,VWS V14.01,2013-09-17 16:34:00,
2013-09-17 12:39:00,59.0,40.9,30.37,NW,323,4.0,5.0,51,0.00,,---,0.00,VWS V14.01,2013-09-17 16:39:00,
2013-09-17 12:45:00,59.0,39.4,30.36,NW,309,0.0,8.0,48,0.00,,---,0.00,VWS V14.01,2013-09-17 16:45:00,
2013-09-17 12:49:00,59.2,38.5,30.36,WNW,300,1.0,8.0,46,0.00,,---,0.00,VWS V14.01,2013-09-17 16:49:00,
2013-09-17 12:54:00,59.3,39.6,30.36,WNW,296,2.0,8.0,48,0.00,,---,0.00,VWS V14.01,2013-09-17 16:54:00,
2013-09-17 12:59:00,59.5,39.3,30.36,ESE,105,3.0,4.0,47,0.00,,---,0.00,VWS V14.01,2013-09-17 16:59:00,
2013-09-17 13:00:00,59.4,39.7,30.36,NW,322,1.0,8.0,48,0.00,,---,0.00,VWS V14.01,2013-09-17 17:00:00,
2013-09-17 13:04:00,59.5,39.3,30.36,ENE,77,0.0,6.0,47,0.00,,---,0.00,VWS V14.01,2013-09-17 17:04:00,
2013-09-17 13:09:00,59.7,40.0,30.36,NNW,342,2.0,6.0,48,0.00,,---,0.00,VWS V14.01,2013-09-17 17:09:00,
2013-09-17 13:14:00,59.9,39.6,30.35,NNE,24,2.0,6.0,47,0.00,,---,0.00,VWS V14.01,2013-09-17 17:14:00,
2013-09-17 13:19:00,59.9,40.2,30.35,WNW,283,1.0,7.0,48,0.00,,---,0.00,VWS V14.01,2013-09-17 17:19:00,
2013-09-17 13:24:00,59.7,39.5,30.35,West,269,3.0,7.0,47,0.00,,---,0.00,VWS V14.01,2013-09-17 17:24:00,
2013-09-17 13:29:00,59.7,41.6,30.35,WNW,300,2.0,2.0,51,0.00,,---,0.00,VWS V14.01,2013-09-17 17:29:00,
2013-09-17 13:30:00,59.7,41.6,30.35,WNW,283,1.0,7.0,51,0.00,,---,0.00,VWS V14.01,2013-09-17 17:30:00,
2013-09-17 13:34:00,60.2,42.0,30.35,NNW,339,2.0,2.0,51,0.00,,---,0.00,VWS V14.01,2013-09-17 17:34:00,
2013-09-17 13:39:00,60.3,38.9,30.34,WNW,293,1.0,5.0,45,0.00,,---,0.00,VWS V14.01,2013-09-17 17:39:00,
2013-09-17 13:44:00,60.4,39.5,30.34,NE,51,0.0,5.0,46,0.00,,---,0.00,VWS V14.01,2013-09-17 17:44:00,
2013-09-17 13:49:00,60.8,39.3,30.34,NW,326,3.0,5.0,45,0.00,,---,0.00,VWS V14.01,2013-09-17 17:49:00,
2013-09-17 13:54:00,60.2,38.8,30.34,West,278,1.0,6.0,45,0.00,,---,0.00,VWS V14.01,2013-09-17 17:54:00,
2013-09-17 13:59:00,60.4,40.6,30.34,South,185,1.0,3.0,48,0.00,,---,0.00,VWS V14.01,2013-09-17 17:59:00,
2013-09-17 14:00:00,60.3,39.5,30.34,ESE,103,0.0,6.0,46,0.00,,---,0.00,VWS V14.01,2013-09-17 18:00:00,
2013-09-17 14:04:00,60.5,39.6,30.34,NW,315,1.0,7.0,46,0.00,,---,0.00,VWS V14.01,2013-09-17 18:04:00,
2013-09-17 14:09:00,61.1,39.6,30.34,NW,321,1.0,7.0,45,0.00,,---,0.00,VWS V14.01,2013-09-17 18:09:00,
2013-09-17 14:14:00,61.1,39.0,30.34,West,264,0.0,7.0,44,0.00,,---,0.00,VWS V14.01,2013-09-17 18:14:00,
2013-09-17 14:19:00,60.8,39.9,30.33,North,356,1.0,7.0,46,0.00,,---,0.00,VWS V14.01,2013-09-17 18:19:00,
2013-09-17 14:24:00,61.1,39.0,30.33,ENE,64,1.0,7.0,44,0.00,,---,0.00,VWS V14.01,2013-09-17 18:24:00,
2013-09-17 14:29:00,61.4,39.9,30.33,SW,218,4.0,4.0,45,0.00,,---,0.00,VWS V14.01,2013-09-17 18:29:00,
2013-09-17 14:30:00,61.5,41.1,30.33,NW,311,2.0,7.0,47,0.00,,---,0.00,VWS V14.01,2013-09-17 18:30:00,
2013-09-17 14:34:00,61.1,40.2,30.33,WNW,293,0.0,4.0,46,0.00,,---,0.00,VWS V14.01,2013-09-17 18:34:00,
2013-09-17 14:39:00,61.0,40.1,30.33,NW,314,0.0,4.0,46,0.00,,---,0.00,VWS V14.01,2013-09-17 18:39:00,
2013-09-17 14:44:00,60.9,42.7,30.33,NW,325,1.0,5.0,51,0.00,,---,0.00,VWS V14.01,2013-09-17 18:44:00,
2013-09-17 14:49:00,61.0,39.5,30.33,SSE,148,2.0,5.0,45,0.00,,---,0.00,VWS V14.01,2013-09-17 18:49:00,
2013-09-17 14:54:00,60.8,38.8,30.33,NW,317,3.0,5.0,44,0.00,,---,0.00,VWS V14.01,2013-09-17 18:54:00,
2013-09-17 14:59:00,60.9,40.5,30.33,SSE,159,0.0,1.0,47,0.00,,---,0.00,VWS V14.01,2013-09-17 18:59:00,
2013-09-17 15:00:00,60.8,40.5,30.33,NW,318,0.0,5.0,47,0.00,,---,0.00,VWS V14.01,2013-09-17 19:00:00,
2013-09-17 15:04:00,61.1,41.8,30.33,SSW,205,2.0,6.0,49,0.00,,---,0.00,VWS V14.01,2013-09-17 19:04:00,
2013-09-17 15:09:00,61.4,39.9,30.32,East,79,0.0,6.0,45,0.00,,---,0.00,VWS V14.01,2013-09-17 19:09:00,
2013-09-17 15:14:00,61.4,39.3,30.32,North,1,1.0,7.0,44,0.00,,---,0.00,VWS V14.01,2013-09-17 19:14:00,
2013-09-17 15:19:00,60.9,38.3,30.32,NW,318,2.0,7.0,43,0.00,,---,0.00,VWS V14.01,2013-09-17 19:19:00,
2013-09-17 15:24:00,60.7,39.8,30.32,WNW,283,0.0,7.0,46,0.00,,---,0.00,VWS V14.01,2013-09-17 19:24:00,
2013-09-17 15:29:00,60.6,42.9,30.32,North,5,1.0,4.0,52,0.00,,---,0.00,VWS V14.01,2013-09-17 19:29:00,
2013-09-17 15:30:00,60.7,42.5,30.32,West,269,0.0,7.0,51,0.00,,---,0.00,VWS V14.01,2013-09-17 19:30:00,
2013-09-17 15:34:00,60.4,40.6,30.32,NW,319,3.0,7.0,48,0.00,,---,0.00,VWS V14.01,2013-09-17 19:34:00,
2013-09-17 15:39:00,60.1,39.3,30.32,NW,319,1.0,7.0,46,0.00,,---,0.00,VWS V14.01,2013-09-17 19:39:00,
2013-09-17 15:44:00,60.0,40.3,30.32,NNW,340,1.0,7.0,48,0.00,,---,0.00,VWS V14.01,2013-09-17 19:44:00,
2013-09-17 15:49:00,59.9,40.2,30.32,WNW,294,0.0,7.0,48,0.00,,---,0.00,VWS V14.01,2013-09-17 19:49:00,
2013-09-17 15:54:00,60.0,39.7,30.32,West,271,0.0,7.0,47,0.00,,---,0.00,VWS V14.01,2013-09-17 19:54:00,
2013-09-17 15:59:00,59.9,40.2,30.32,WNW,293,0.0,0.0,48,0.00,,---,0.00,VWS V14.01,2013-09-17 19:59:00,
2013-09-17 16:00:00,60.0,40.3,30.32,WNW,293,0.0,7.0,48,0.00,,---,0.00,VWS V14.01,2013-09-17 20:00:00,
2013-09-17 16:04:00,59.9,40.7,30.31,NNW,341,1.0,1.0,49,0.00,,---,0.00,VWS V14.01,2013-09-17 20:04:00,
2013-09-17 16:09:00,59.7,42.6,30.31,West,276,1.0,4.0,53,0.00,,---,0.00,VWS V14.01,2013-09-17 20:09:00,
2013-09-17 16:14:00,59.4,41.3,30.32,NW,323,1.0,4.0,51,0.00,,---,0.00,VWS V14.01,2013-09-17 20:14:00,
2013-09-17 16:19:00,59.4,40.2,30.32,NNW,342,1.0,4.0,49,0.00,,---,0.00,VWS V14.01,2013-09-17 20:19:00,
2013-09-17 16:24:00,59.4,40.2,30.31,NNW,330,1.0,4.0,49,0.00,,---,0.00,VWS V14.01,2013-09-17 20:24:00,
2013-09-17 16:29:00,59.2,41.6,30.31,NNE,17,1.0,2.0,52,0.00,,---,0.00,VWS V14.01,2013-09-17 20:29:00,
2013-09-17 16:30:00,59.3,41.7,30.31,WNW,293,2.0,4.0,52,0.00,,---,0.00,VWS V14.01,2013-09-17 20:30:00,
2013-09-17 16:34:00,59.2,40.6,30.31,WSW,240,0.0,3.0,50,0.00,,---,0.00,VWS V14.01,2013-09-17 20:34:00,
2013-09-17 16:39:00,59.1,41.0,30.31,NNW,333,0.0,3.0,51,0.00,,---,0.00,VWS V14.01,2013-09-17 20:39:00,
2013-09-17 16:44:00,58.7,40.6,30.31,NW,319,0.0,3.0,51,0.00,,---,0.00,VWS V14.01,2013-09-17 20:44:00,
2013-09-17 16:49:00,58.6,41.0,30.31,NNW,347,2.0,3.0,52,0.00,,---,0.00,VWS V14.01,2013-09-17 20:49:00,
2013-09-17 16:54:00,58.6,39.5,30.31,SE,136,0.0,3.0,49,0.00,,---,0.00,VWS V14.01,2013-09-17 20:54:00,
2013-09-17 16:59:00,58.6,41.0,30.31,NNE,18,1.0,1.0,52,0.00,,---,0.00,VWS V14.01,2013-09-17 20:59:00,
2013-09-17 17:00:00,58.6,41.0,30.31,North,4,0.0,4.0,52,0.00,,---,0.00,VWS V14.01,2013-09-17 21:00:00,
2013-09-17 17:04:00,58.6,40.5,30.31,North,358,0.0,2.0,51,0.00,,---,0.00,VWS V14.01,2013-09-17 21:04:00,
2013-09-17 17:09:00,58.5,41.0,30.31,WSW,243,0.0,2.0,52,0.00,,---,0.00,VWS V14.01,2013-09-17 21:09:00,
2013-09-17 17:14:00,58.2,45.3,30.31,WNW,286,1.0,2.0,62,0.00,,---,0.00,VWS V14.01,2013-09-17 21:14:00,
2013-09-17 17:19:00,57.6,43.4,30.31,West,260,0.0,4.0,59,0.00,,---,0.00,VWS V14.01,2013-09-17 21:19:00,
2013-09-17 17:24:00,57.0,41.9,30.31,West,275,1.0,4.0,57,0.00,,---,0.00,VWS V14.01,2013-09-17 21:24:00,
2013-09-17 17:29:00,57.1,41.1,30.31,North,5,1.0,1.0,55,0.00,,---,0.00,VWS V14.01,2013-09-17 21:29:00,
2013-09-17 17:30:00,57.0,41.5,30.31,North,6,0.0,4.0,56,0.00,,---,0.00,VWS V14.01,2013-09-17 21:30:00,
2013-09-17 17:34:00,57.1,45.0,30.31,West,269,1.0,1.0,64,0.00,,---,0.00,VWS V14.01,2013-09-17 21:34:00,
2013-09-17 17:39:00,56.4,44.0,30.31,West,269,0.0,1.0,63,0.00,,---,0.00,VWS V14.01,2013-09-17 21:39:00,
2013-09-17 17:44:00,56.1,44.1,30.31,West,269,0.0,1.0,64,0.00,,---,0.00,VWS V14.01,2013-09-17 21:44:00,
2013-09-17 17:49:00,55.8,45.0,30.31,WSW,255,0.0,1.0,67,0.00,,---,0.00,VWS V14.01,2013-09-17 21:49:00,
2013-09-17 17:54:00,55.4,45.0,30.31,WSW,256,0.0,1.0,68,0.00,,---,0.00,VWS V14.01,2013-09-17 21:54:00,
2013-09-17 17:59:00,55.0,45.8,30.31,WSW,256,0.0,0.0,71,0.00,,---,0.00,VWS V14.01,2013-09-17 21:59:00,
2013-09-17 18:00:00,55.1,45.9,30.31,WSW,256,0.0,1.0,71,0.00,,---,0.00,VWS V14.01,2013-09-17 22:00:00,
2013-09-17 18:04:00,54.6,45.0,30.31,WSW,255,0.0,0.0,70,0.00,,---,0.00,VWS V14.01,2013-09-17 22:04:00,
2013-09-17 18:09:00,54.3,45.1,30.31,WSW,255,0.0,0.0,71,0.00,,---,0.00,VWS V14.01,2013-09-17 22:09:00,
2013-09-17 18:14:00,53.9,45.1,30.31,WSW,255,0.0,0.0,72,0.00,,---,0.00,VWS V14.01,2013-09-17 22:14:00,
2013-09-17 18:19:00,53.6,45.5,30.31,WSW,255,0.0,0.0,74,0.00,,---,0.00,VWS V14.01,2013-09-17 22:19:00,
2013-09-17 18:24:00,53.2,45.1,30.31,WSW,256,0.0,0.0,74,0.00,,---,0.00,VWS V14.01,2013-09-17 22:24:00,
2013-09-17 18:29:00,52.9,44.8,30.31,WSW,255,0.0,0.0,74,0.00,,---,0.00,VWS V14.01,2013-09-17 22:29:00,
2013-09-17 18:30:00,52.9,44.8,30.31,WSW,255,0.0,0.0,74,0.00,,---,0.00,VWS V14.01,2013-09-17 22:30:00,
2013-09-17 18:34:00,52.5,45.2,30.31,WSW,256,0.0,0.0,76,0.00,,---,0.00,VWS V14.01,2013-09-17 22:34:00,
2013-09-17 18:39:00,52.2,44.9,30.31,WSW,256,0.0,0.0,76,0.00,,---,0.00,VWS V14.01,2013-09-17 22:39:00,
2013-09-17 18:44:00,52.0,45.0,30.31,WSW,255,0.0,0.0,77,0.00,,---,0.00,VWS V14.01,2013-09-17 22:44:00,
2013-09-17 18:49:00,51.7,45.4,30.31,WSW,256,0.0,0.0,79,0.00,,---,0.00,VWS V14.01,2013-09-17 22:49:00,
2013-09-17 18:54:00,51.4,45.1,30.31,WSW,256,0.0,0.0,79,0.00,,---,0.00,VWS V14.01,2013-09-17 22:54:00,
2013-09-17 18:59:00,51.2,44.9,30.31,WSW,256,0.0,0.0,79,0.00,,---,0.00,VWS V14.01,2013-09-17 22:59:00,
2013-09-17 19:00:00,51.2,44.6,30.31,WSW,256,0.0,0.0,78,0.00,,---,0.00,VWS V14.01,2013-09-17 23:00:00,
2013-09-17 19:04:00,50.8,44.5,30.31,WSW,255,0.0,0.0,79,0.00,,---,0.00,VWS V14.01,2013-09-17 23:04:00,
2013-09-17 19:09:00,50.4,44.5,30.31,WSW,256,0.0,0.0,80,0.00,,---,0.00,VWS V14.01,2013-09-17 23:09:00,
2013-09-17 19:14:00,49.9,44.3,30.31,WSW,256,0.0,0.0,81,0.00,,---,0.00,VWS V14.01,2013-09-17 23:14:00,
2013-09-17 19:19:00,49.4,44.5,30.31,WSW,256,0.0,0.0,83,0.00,,---,0.00,VWS V14.01,2013-09-17 23:19:00,
2013-09-17 19:24:00,48.9,44.6,30.31,WSW,256,0.0,0.0,85,0.00,,---,0.00,VWS V14.01,2013-09-17 23:24:00,
2013-09-17 19:29:00,48.6,44.9,30.31,WSW,256,0.0,0.0,87,0.00,,---,0.00,VWS V14.01,2013-09-17 23:29:00,
2013-09-17 19:30:00,48.6,44.9,30.31,WSW,255,0.0,0.0,87,0.00,,---,0.00,VWS V14.01,2013-09-17 23:30:00,
2013-09-17 19:34:00,48.3,44.9,30.31,West,272,0.0,0.0,88,0.00,,---,0.00,VWS V14.01,2013-09-17 23:34:00,
2013-09-17 19:39:00,48.0,44.9,30.31,NW,316,0.0,0.0,89,0.00,,---,0.00,VWS V14.01,2013-09-17 23:39:00,
2013-09-17 19:44:00,47.7,44.9,30.31,NW,316,0.0,0.0,90,0.00,,---,0.00,VWS V14.01,2013-09-17 23:44:00,
2013-09-17 19:49:00,47.5,44.7,30.31,NW,316,0.0,0.0,90,0.00,,---,0.00,VWS V14.01,2013-09-17 23:49:00,
2013-09-17 19:54:00,47.3,44.8,30.31,NW,316,0.0,0.0,91,0.00,,---,0.00,VWS V14.01,2013-09-17 23:54:00,
2013-09-17 19:59:00,47.0,44.8,30.32,NW,316,0.0,0.0,92,0.00,,---,0.00,VWS V14.01,2013-09-17 23:59:00,
2013-09-17 20:00:00,47.1,44.9,30.31,NW,316,0.0,0.0,92,0.00,,---,0.00,VWS V14.01,2013-09-18 00:00:00,
2013-09-17 20:04:00,46.9,45.0,30.32,NW,316,0.0,0.0,93,0.00,,---,0.00,VWS V14.01,2013-09-18 00:04:00,
2013-09-17 20:09:00,46.8,44.9,30.32,NW,316,0.0,0.0,93,0.00,,---,0.00,VWS V14.01,2013-09-18 00:09:00,
2013-09-17 20:14:00,46.7,44.8,30.32,NW,316,0.0,0.0,93,0.00,,---,0.00,VWS V14.01,2013-09-18 00:14:00,
2013-09-17 20:19:00,46.5,44.6,30.32,NW,316,0.0,0.0,93,0.00,,---,0.00,VWS V14.01,2013-09-18 00:19:00,
2013-09-17 20:24:00,46.3,44.7,30.32,NW,316,0.0,0.0,94,0.00,,---,0.00,VWS V14.01,2013-09-18 00:24:00,
2013-09-17 20:29:00,46.1,44.5,30.32,NW,316,0.0,0.0,94,0.00,,---,0.00,VWS V14.01,2013-09-18 00:29:00,
2013-09-17 20:30:00,46.2,44.6,30.32,NW,316,0.0,0.0,94,0.00,,---,0.00,VWS V14.01,2013-09-18 00:30:00,
2013-09-17 20:34:00,46.0,44.7,30.32,NW,316,0.0,0.0,95,0.00,,---,0.00,VWS V14.01,2013-09-18 00:34:00,
2013-09-17 20:39:00,45.9,44.5,30.32,NW,316,0.0,0.0,95,0.00,,---,0.00,VWS V14.01,2013-09-18 00:39:00,
2013-09-17 20:44:00,45.8,44.5,30.32,NW,316,0.0,0.0,95,0.00,,---,0.00,VWS V14.01,2013-09-18 00:44:00,
2013-09-17 20:49:00,45.7,44.3,30.31,NW,316,0.0,0.0,95,0.00,,---,0.00,VWS V14.01,2013-09-18 00:49:00,
2013-09-17 20:54:00,45.6,44.2,30.32,NW,316,0.0,0.0,95,0.00,,---,0.00,VWS V14.01,2013-09-18 00:54:00,
2013-09-17 20:59:00,45.4,44.0,30.31,NW,316,0.0,0.0,95,0.00,,---,0.00,VWS V14.01,2013-09-18 00:59:00,
2013-09-17 21:00:00,45.5,44.2,30.32,NW,316,0.0,0.0,95,0.00,,---,0.00,VWS V14.01,2013-09-18 01:00:00,
2013-09-17 21:04:00,45.3,44.0,30.31,NW,316,0.0,0.0,95,0.00,,---,0.00,VWS V14.01,2013-09-18 01:04:00,
2013-09-17 21:09:00,45.2,43.9,30.32,NW,316,0.0,0.0,95,0.00,,---,0.00,VWS V14.01,2013-09-18 01:09:00,
2013-09-17 21:14:00,45.1,43.8,30.31,NW,316,0.0,0.0,95,0.00,,---,0.00,VWS V14.01,2013-09-18 01:14:00,
2013-09-17 21:19:00,44.9,43.8,30.31,NW,316,0.0,0.0,96,0.00,,---,0.00,VWS V14.01,2013-09-18 01:19:00,
2013-09-17 21:24:00,44.8,43.7,30.31,NW,316,0.0,0.0,96,0.00,,---,0.00,VWS V14.01,2013-09-18 01:24:00,
2013-09-17 21:29:00,44.6,43.5,30.31,NW,316,0.0,0.0,96,0.00,,---,0.00,VWS V14.01,2013-09-18 01:29:00,
2013-09-17 21:30:00,44.6,43.5,30.31,NW,316,0.0,0.0,96,0.00,,---,0.00,VWS V14.01,2013-09-18 01:30:00,
2013-09-17 21:34:00,44.4,43.3,30.31,NW,316,0.0,0.0,96,0.00,,---,0.00,VWS V14.01,2013-09-18 01:34:00,
2013-09-17 21:39:00,44.3,43.2,30.31,NW,316,0.0,0.0,96,0.00,,---,0.00,VWS V14.01,2013-09-18 01:39:00,
2013-09-17 21:44:00,44.1,43.0,30.31,NW,316,0.0,0.0,96,0.00,,---,0.00,VWS V14.01,2013-09-18 01:44:00,
2013-09-17 21:49:00,44.0,42.9,30.31,NW,316,0.0,0.0,96,0.00,,---,0.00,VWS V14.01,2013-09-18 01:49:00,
2013-09-17 21:54:00,43.9,42.8,30.31,NW,316,0.0,0.0,96,0.00,,---,0.00,VWS V14.01,2013-09-18 01:54:00,
2013-09-17 21:59:00,43.9,42.8,30.32,NW,316,0.0,0.0,96,0.00,,---,0.00,VWS V14.01,2013-09-18 01:59:00,
2013-09-17 22:00:00,43.9,42.8,30.32,NW,316,0.0,0.0,96,0.00,,---,0.00,VWS V14.01,2013-09-18 02:00:00,
2013-09-17 22:04:00,43.7,42.6,30.32,NW,316,0.0,0.0,96,0.00,,---,0.00,VWS V14.01,2013-09-18 02:04:00,
2013-09-17 22:09:00,43.7,42.9,30.32,NNW,332,0.0,0.0,97,0.00,,---,0.00,VWS V14.01,2013-09-18 02:09:00,
2013-09-17 22:14:00,43.7,42.6,30.32,NNW,333,0.0,0.0,96,0.00,,---,0.00,VWS V14.01,2013-09-18 02:14:00,
2013-09-17 22:19:00,43.6,42.5,30.32,NNW,333,0.0,0.0,96,0.00,,---,0.00,VWS V14.01,2013-09-18 02:19:00,
2013-09-17 22:24:00,43.6,42.5,30.32,NNW,333,0.0,0.0,96,0.00,,---,0.00,VWS V14.01,2013-09-18 02:24:00,
2013-09-17 22:29:00,43.5,42.4,30.32,NNW,333,0.0,0.0,96,0.00,,---,0.00,VWS V14.01,2013-09-18 02:29:00,
2013-09-17 22:30:00,43.5,42.4,30.32,NNW,333,0.0,0.0,96,0.00,,---,0.00,VWS V14.01,2013-09-18 02:30:00,
2013-09-17 22:34:00,43.5,42.4,30.32,NNW,333,0.0,0.0,96,0.00,,---,0.00,VWS V14.01,2013-09-18 02:34:00,
2013-09-17 22:39:00,43.3,42.2,30.32,NNW,333,0.0,0.0,96,0.00,,---,0.00,VWS V14.01,2013-09-18 02:39:00,
2013-09-17 22:44:00,43.2,42.1,30.32,NNW,333,0.0,0.0,96,0.00,,---,0.00,VWS V14.01,2013-09-18 02:44:00,
2013-09-17 22:49:00,43.1,42.0,30.32,NNW,333,0.0,0.0,96,0.00,,---,0.00,VWS V14.01,2013-09-18 02:49:00,
2013-09-17 22:54:00,43.0,41.9,30.32,NNW,343,0.0,1.0,96,0.00,,---,0.00,VWS V14.01,2013-09-18 02:54:00,
2013-09-17 22:59:00,42.9,41.8,30.32,NNW,343,1.0,1.0,96,0.00,,---,0.00,VWS V14.01,2013-09-18 02:59:00,
2013-09-17 23:00:00,42.9,41.8,30.32,NNW,343,0.0,1.0,96,0.00,,---,0.00,VWS V14.01,2013-09-18 03:00:00,
2013-09-17 23:04:00,42.9,42.1,30.32,NNW,343,0.0,1.0,97,0.00,,---,0.00,VWS V14.01,2013-09-18 03:04:00,
2013-09-17 23:09:00,42.9,42.1,30.32,NNW,343,0.0,1.0,97,0.00,,---,0.00,VWS V14.01,2013-09-18 03:09:00,
2013-09-17 23:14:00,42.9,42.1,30.32,NNW,343,0.0,1.0,97,0.00,,---,0.00,VWS V14.01,2013-09-18 03:14:00,
2013-09-17 23:19:00,42.9,42.1,30.32,NNW,343,0.0,1.0,97,0.00,,---,0.00,VWS V14.01,2013-09-18 03:19:00,
2013-09-17 23:24:00,42.9,42.1,30.32,NNW,343,0.0,1.0,97,0.00,,---,0.00,VWS V14.01,2013-09-18 03:24:00,
2013-09-17 23:29:00,42.8,41.7,30.31,NNW,343,0.0,0.0,96,0.00,,---,0.00,VWS V14.01,2013-09-18 03:29:00,
2013-09-17 23:30:00,42.8,41.7,30.31,NNW,343,0.0,1.0,96,0.00,,---,0.00,VWS V14.01,2013-09-18 03:30:00,
2013-09-17 23:34:00,42.6,41.5,30.31,NNW,343,0.0,1.0,96,0.00,,---,0.00,VWS V14.01,2013-09-18 03:34:00,
2013-09-17 23:39:00,42.4,41.3,30.31,NNW,343,0.0,1.0,96,0.00,,---,0.00,VWS V14.01,2013-09-18 03:39:00,
2013-09-17 23:44:00,42.2,41.4,30.31,NNW,343,0.0,1.0,97,0.00,,---,0.00,VWS V14.01,2013-09-18 03:44:00,
2013-09-17 23:49:00,42.2,41.4,30.31,NNW,343,0.0,1.0,97,0.00,,---,0.00,VWS V14.01,2013-09-18 03:49:00,
2013-09-17 23:54:00,42.3,41.5,30.31,NNW,343,0.0,1.0,97,0.00,,---,0.00,VWS V14.01,2013-09-18 03:54:00,
2013-09-17 23:59:00,42.3,41.5,30.31,NNW,343,0.0,1.0,97,0.00,,---,0.00,VWS V14.01,2013-09-18 03:59:00,